createdAt,value
2023-04-02T00:01:16.479Z,101294.78
2023-04-02T00:03:43.717Z,101298.69
2023-04-02T00:06:34.836Z,101299.94
2023-04-02T00:09:13.594Z,101301.19
2023-04-02T00:11:49.198Z,101308.56
2023-04-02T00:14:22.967Z,101314.09
2023-04-02T00:16:51.321Z,101310.03
2023-04-02T00:19:38.592Z,101314.72
2023-04-02T00:22:09.660Z,101317.84
2023-04-02T00:24:39.507Z,101322.53
2023-04-02T00:27:10.357Z,101321.72
2023-04-02T00:29:36.827Z,101325.63
2023-04-02T00:32:03.418Z,101333.00
2023-04-02T00:34:37.670Z,101336.69
2023-04-02T00:37:04.485Z,101333.44
2023-04-02T00:39:38.683Z,101344.25
2023-04-02T00:42:05.234Z,101346.91
2023-04-02T00:44:37.879Z,101360.44
2023-04-02T00:47:17.502Z,101367.81
2023-04-02T00:49:44.136Z,101371.47
2023-04-02T00:52:14.458Z,101363.75
2023-04-02T00:54:49.500Z,101378.88
2023-04-02T00:57:21.756Z,101382.75
2023-04-02T01:00:09.843Z,101389.91
2023-04-02T01:02:40.864Z,101388.28
2023-04-02T01:05:16.700Z,101398.31
2023-04-02T01:08:04.419Z,101396.69
2023-04-02T01:10:46.136Z,101404.66
2023-04-02T01:13:23.933Z,101408.53
2023-04-02T01:16:19.388Z,101416.53
2023-04-02T01:19:18.249Z,101420.22
2023-04-02T01:21:55.393Z,101423.69
2023-04-02T01:24:27.058Z,101429.19
2023-04-02T01:26:57.927Z,101425.72
2023-04-02T01:29:38.265Z,101432.88
2023-04-02T01:32:09.161Z,101435.53
2023-04-02T01:34:36.434Z,101442.69
2023-04-02T01:37:27.301Z,101447.19
2023-04-02T01:40:18.711Z,101451.69
2023-04-02T01:42:58.239Z,101455.38
2023-04-02T01:45:25.210Z,101457.19
2023-04-02T01:47:52.074Z,101461.72
2023-04-02T01:50:21.923Z,101471.53
2023-04-02T01:52:51.375Z,101469.91
2023-04-02T01:55:25.788Z,101475.41
2023-04-02T01:57:54.238Z,101479.72
2023-04-02T02:00:22.424Z,101482.56
2023-04-02T02:02:49.888Z,101495.03
2023-04-02T02:05:20.209Z,101500.56
2023-04-02T02:07:47.027Z,101502.41
2023-04-02T02:10:22.599Z,101509.34
2023-04-02T02:12:50.783Z,101515.69
2023-04-02T02:15:19.418Z,101511.59
2023-04-02T02:17:46.018Z,101523.25
2023-04-02T02:20:13.780Z,101528.56
2023-04-02T02:22:45.200Z,101532.22
2023-04-02T02:25:16.481Z,101541.25
2023-04-02T02:27:54.305Z,101535.91
2023-04-02T02:30:36.092Z,101542.28
2023-04-02T02:33:06.874Z,101551.25
2023-04-02T02:35:41.014Z,101538.97
2023-04-02T02:38:28.333Z,101552.25
2023-04-02T02:41:00.759Z,101558.63
2023-04-02T02:43:28.170Z,101557.16
2023-04-02T02:45:57.461Z,101561.66
2023-04-02T02:48:36.620Z,101571.47
2023-04-02T02:51:10.606Z,101575.97
2023-04-02T02:53:47.394Z,101571.69
2023-04-02T02:56:14.298Z,101586.78
2023-04-02T02:58:41.253Z,101589.44
2023-04-02T03:01:08.007Z,101596.59
2023-04-02T03:03:35.181Z,101602.13
2023-04-02T03:06:10.130Z,101611.13
2023-04-02T03:08:43.442Z,101612.13
2023-04-02T03:11:23.940Z,101611.31
2023-04-02T03:13:54.490Z,101612.34
2023-04-02T03:16:28.665Z,101620.50
2023-04-02T03:19:05.860Z,101629.50
2023-04-02T03:22:03.061Z,101636.66
2023-04-02T03:24:39.665Z,101642.19
2023-04-02T03:27:09.003Z,101652.81
2023-04-02T03:29:41.313Z,101659.97
2023-04-02T03:32:16.527Z,101665.28
2023-04-02T03:34:49.724Z,101660.97
2023-04-02T03:37:24.057Z,101677.91
2023-04-02T03:39:53.495Z,101684.03
2023-04-02T03:42:56.515Z,101677.25
2023-04-02T03:45:27.077Z,101688.72
2023-04-02T03:48:07.445Z,101695.84
2023-04-02T03:50:36.498Z,101704.66
2023-04-02T03:53:04.391Z,101708.31
2023-04-02T03:55:37.083Z,101715.47
2023-04-02T03:58:25.336Z,101706.91
2023-04-02T04:00:51.725Z,101719.34
2023-04-02T04:03:38.769Z,101727.28
2023-04-02T04:06:10.633Z,101734.44
2023-04-02T04:08:57.055Z,101736.50
2023-04-02T04:11:34.861Z,101736.50
2023-04-02T04:14:10.332Z,101748.13
2023-04-02T04:17:15.718Z,101753.66
2023-04-02T04:20:02.752Z,101764.25
2023-04-02T04:22:30.426Z,101767.94
2023-04-02T04:24:58.629Z,101778.75
2023-04-02T04:27:33.799Z,101780.41
2023-04-02T04:30:05.844Z,101787.75
2023-04-02T04:32:38.977Z,101793.25
2023-04-02T04:35:21.442Z,101795.91
2023-04-02T04:37:53.540Z,101807.09
2023-04-02T04:40:24.999Z,101809.56
2023-04-02T04:42:58.105Z,101816.91
2023-04-02T04:45:47.687Z,101819.56
2023-04-02T04:48:39.086Z,101831.22
2023-04-02T04:51:10.255Z,101832.22
2023-04-02T04:53:49.718Z,101834.09
2023-04-02T04:56:21.533Z,101838.22
2023-04-02T04:59:12.714Z,101854.06
2023-04-02T05:01:48.136Z,101853.53
2023-04-02T05:04:24.859Z,101861.78
2023-04-02T05:07:10.845Z,101873.28
2023-04-02T05:09:42.187Z,101878.88
2023-04-02T05:12:44.410Z,101880.13
2023-04-02T05:15:30.115Z,101890.41
2023-04-02T05:18:11.612Z,101894.94
2023-04-02T05:20:54.723Z,101902.31
2023-04-02T05:23:27.245Z,101911.53
2023-04-02T05:26:19.081Z,101915.59
2023-04-02T05:29:01.039Z,101921.97
2023-04-02T05:31:43.720Z,101917.41
2023-04-02T05:34:12.311Z,101928.88
2023-04-02T05:36:39.627Z,101937.91
2023-04-02T05:39:11.039Z,101938.91
2023-04-02T05:41:43.947Z,101952.81
2023-04-02T05:44:26.311Z,101950.16
2023-04-02T05:47:25.201Z,101948.91
2023-04-02T05:50:08.535Z,101956.69
2023-04-02T05:52:40.795Z,101972.88
2023-04-02T05:55:13.163Z,101970.00
2023-04-02T05:57:51.264Z,101974.31
2023-04-02T06:00:40.843Z,101991.09
2023-04-02T06:03:33.643Z,101993.97
2023-04-02T06:06:08.151Z,101992.06
2023-04-02T06:08:42.961Z,102009.09
2023-04-02T06:11:18.927Z,102005.94
2023-04-02T06:13:45.633Z,102016.59
2023-04-02T06:16:15.688Z,102026.22
2023-04-02T06:18:43.673Z,102040.19
2023-04-02T06:21:12.302Z,102049.56
2023-04-02T06:23:56.961Z,102054.88
2023-04-02T06:26:39.833Z,102064.06
2023-04-02T06:29:27.778Z,102065.25
2023-04-02T06:31:58.513Z,102071.00
2023-04-02T06:34:27.874Z,102071.00
2023-04-02T06:37:17.331Z,102074.88
2023-04-02T06:39:43.876Z,102079.38
2023-04-02T06:42:24.822Z,102086.31
2023-04-02T06:44:51.699Z,102091.00
2023-04-02T06:47:35.006Z,102101.66
2023-04-02T06:50:18.742Z,102096.28
2023-04-02T06:52:56.464Z,102104.47
2023-04-02T06:55:51.054Z,102104.00
2023-04-02T06:58:19.060Z,102108.06
2023-04-02T07:00:47.253Z,102116.03
2023-04-02T07:03:32.661Z,102134.31
2023-04-02T07:06:02.182Z,102134.31
2023-04-02T07:08:28.666Z,102134.31
2023-04-02T07:10:56.259Z,102142.50
2023-04-02T07:13:24.307Z,102149.91
2023-04-02T07:15:53.217Z,102152.34
2023-04-02T07:18:33.932Z,102157.25
2023-04-02T07:21:00.786Z,102167.31
2023-04-02T07:23:27.298Z,102180.00
2023-04-02T07:25:55.388Z,102176.09
2023-04-02T07:28:22.889Z,102180.25
2023-04-02T07:30:50.622Z,102184.97
2023-04-02T07:33:19.535Z,102194.47
2023-04-02T07:35:46.717Z,102202.53
2023-04-02T07:38:13.238Z,102213.88
2023-04-02T07:40:40.156Z,102215.59
2023-04-02T07:43:06.851Z,102214.81
2023-04-02T07:45:33.685Z,102212.16
2023-04-02T07:48:12.327Z,102220.19
2023-04-02T07:50:38.854Z,102216.72
2023-04-02T07:53:07.153Z,102223.13
2023-04-02T07:55:33.837Z,102220.09
2023-04-02T07:58:00.692Z,102231.03
2023-04-02T08:00:28.930Z,102232.06
2023-04-02T08:02:56.124Z,102235.19
2023-04-02T08:05:23.087Z,102236.88
2023-04-02T08:07:55.495Z,102245.69
2023-04-02T08:10:22.555Z,102247.97
2023-04-02T08:12:49.659Z,102251.06
2023-04-02T08:15:17.230Z,102254.16
2023-04-02T08:17:43.945Z,102261.94
2023-04-02T08:20:22.399Z,102264.84
2023-04-02T08:22:49.804Z,102269.72
2023-04-02T08:25:16.788Z,102269.31
2023-04-02T08:27:43.370Z,102268.66
2023-04-02T08:30:12.677Z,102276.84
2023-04-02T08:32:41.194Z,102279.06
2023-04-02T08:35:10.031Z,102293.44
2023-04-02T08:37:37.240Z,102297.91
2023-04-02T08:40:04.961Z,102302.00
2023-04-02T08:42:44.019Z,102311.47
2023-04-02T08:45:32.314Z,102306.28
2023-04-02T08:48:00.014Z,102316.53
2023-04-02T08:50:41.377Z,102324.13
2023-04-02T08:53:19.784Z,102326.13
2023-04-02T08:55:47.905Z,102333.88
2023-04-02T08:58:41.750Z,102330.75
2023-04-02T09:01:19.922Z,102346.53
2023-04-02T09:03:49.527Z,102344.41
2023-04-02T09:06:19.042Z,102347.25
2023-04-02T09:08:48.807Z,102356.94
2023-04-02T09:11:27.488Z,102353.38
2023-04-02T09:14:00.201Z,102355.19
2023-04-02T09:16:49.620Z,102365.03
2023-04-02T09:19:26.385Z,102368.69
2023-04-02T09:22:07.688Z,102372.56
2023-04-02T09:24:35.389Z,102359.34
2023-04-02T09:27:01.952Z,102376.81
2023-04-02T09:29:40.163Z,102380.53
2023-04-02T09:32:23.074Z,102391.97
2023-04-02T09:34:49.609Z,102395.31
2023-04-02T09:37:25.454Z,102394.34
2023-04-02T09:39:51.914Z,102403.66
2023-04-02T09:42:36.274Z,102410.91
2023-04-02T09:45:21.336Z,102408.47
2023-04-02T09:47:48.936Z,102405.22
2023-04-02T09:50:21.364Z,102405.06
2023-04-02T09:52:49.396Z,102400.19
2023-04-02T09:55:16.093Z,102396.91
2023-04-02T09:57:43.270Z,102398.41
2023-04-02T10:00:32.554Z,102407.28
2023-04-02T10:03:01.586Z,102415.72
2023-04-02T10:05:40.126Z,102423.72
2023-04-02T10:08:17.164Z,102426.84
2023-04-02T10:10:48.261Z,102425.41
2023-04-02T10:13:35.660Z,102437.13
2023-04-02T10:16:17.649Z,102431.38
2023-04-02T10:18:59.160Z,102441.25
2023-04-02T10:21:30.282Z,102443.31
2023-04-02T10:23:59.360Z,102435.28
2023-04-02T10:38:14.571Z,102494.81
2023-04-02T10:41:09.024Z,102493.13
2023-04-02T10:52:27.803Z,102509.31
2023-04-02T10:55:05.356Z,102518.78
2023-04-02T10:57:35.204Z,102517.13
2023-04-02T11:00:18.274Z,102506.03
2023-04-02T11:02:57.365Z,102514.28
2023-04-02T11:05:40.325Z,102521.53
2023-04-02T11:08:10.223Z,102513.56
2023-04-02T11:10:40.352Z,102516.00
2023-04-02T11:13:20.474Z,102521.31
2023-04-02T11:15:47.055Z,102523.56
2023-04-02T11:18:42.770Z,102517.44
2023-04-02T11:21:42.334Z,102519.38
2023-04-02T12:00:49.076Z,102561.50
2023-04-02T12:03:40.147Z,102561.22
2023-04-02T12:06:16.238Z,102557.34
2023-04-02T12:08:57.875Z,102561.38
2023-04-02T12:11:34.162Z,102566.94
2023-04-02T12:14:01.667Z,102577.72
2023-04-02T12:16:33.224Z,102572.56
2023-04-02T12:19:01.137Z,102578.03
2023-04-02T12:21:29.447Z,102573.09
2023-04-02T12:23:58.511Z,102585.28
2023-04-02T12:26:30.101Z,102583.06
2023-04-02T12:29:22.061Z,102591.56
2023-04-02T12:31:49.343Z,102579.09
2023-04-02T12:34:18.355Z,102591.41
2023-04-02T12:37:22.675Z,102600.13
2023-04-02T12:39:55.146Z,102591.84
2023-04-02T12:42:30.930Z,102588.41
2023-04-02T12:44:57.669Z,102584.63
2023-04-02T12:47:25.093Z,102599.03
2023-04-02T12:49:52.417Z,102589.25
2023-04-02T12:52:22.617Z,102596.84
2023-04-02T12:54:54.427Z,102606.97
2023-04-02T12:57:30.184Z,102604.19
2023-04-02T12:59:59.917Z,102599.50
2023-04-02T13:02:33.209Z,102605.31
2023-04-02T13:05:02.278Z,102606.31
2023-04-02T13:07:32.109Z,102601.16
2023-04-02T13:10:25.675Z,102605.19
2023-04-02T13:12:57.814Z,102612.25
2023-04-02T13:15:28.775Z,102609.63
2023-04-02T13:18:17.948Z,102613.78
2023-04-02T13:20:56.784Z,102617.78
2023-04-02T13:23:29.307Z,102614.88
2023-04-02T13:25:58.425Z,102618.59
2023-04-02T13:28:25.021Z,102619.47
2023-04-02T13:30:51.858Z,102618.06
2023-04-02T13:33:18.826Z,102624.44
2023-04-02T13:35:45.493Z,102621.97
2023-04-02T13:38:12.075Z,102622.38
2023-04-02T13:40:39.203Z,102620.69
2023-04-02T13:43:07.355Z,102622.06
2023-04-02T13:45:39.009Z,102621.38
2023-04-02T13:48:06.523Z,102626.75
2023-04-02T13:50:34.966Z,102625.09
2023-04-02T13:53:08.998Z,102622.47
2023-04-02T13:55:39.881Z,102625.22
2023-04-02T13:58:06.612Z,102635.63
2023-04-02T14:00:36.060Z,102629.50
2023-04-02T14:03:08.102Z,102634.78
2023-04-02T14:05:48.183Z,102637.31
2023-04-02T14:08:33.071Z,102642.97
2023-04-02T14:10:59.515Z,102638.06
2023-04-02T14:13:57.386Z,102645.31
2023-04-02T14:16:45.728Z,102644.97
2023-04-02T14:19:40.584Z,102650.34
2023-04-02T14:22:25.366Z,102655.31
2023-04-02T14:25:03.892Z,102655.31
2023-04-02T14:28:02.008Z,102650.16
2023-04-02T14:30:34.368Z,102655.88
2023-04-02T14:33:21.265Z,102656.00
2023-04-02T14:35:52.350Z,102661.41
2023-04-02T14:38:37.366Z,102656.44
2023-04-02T14:41:17.384Z,102656.94
2023-04-02T14:43:46.454Z,102673.91
2023-04-02T14:46:13.040Z,102672.97
2023-04-02T14:48:54.212Z,102678.06
2023-04-02T14:51:27.306Z,102670.41
2023-04-02T14:54:34.505Z,102683.16
2023-04-02T14:57:32.793Z,102678.91
2023-04-02T15:00:20.999Z,102675.31
2023-04-02T15:02:55.916Z,102678.31
2023-04-02T15:05:38.023Z,102671.88
2023-04-02T15:08:18.070Z,102682.31
2023-04-02T15:11:10.339Z,102688.00
2023-04-02T15:13:49.711Z,102697.31
2023-04-02T15:16:23.190Z,102700.22
2023-04-02T15:18:52.042Z,102698.16
2023-04-02T15:21:29.425Z,102697.88
2023-04-02T15:24:10.690Z,102700.22
2023-04-02T15:27:02.033Z,102695.53
2023-04-02T15:29:55.655Z,102695.59
2023-04-02T15:32:34.426Z,102697.97
2023-04-02T15:35:18.854Z,102694.06
2023-04-02T15:38:06.502Z,102703.94
2023-04-02T15:40:44.680Z,102705.47
2023-04-02T15:43:23.955Z,102709.50
2023-04-02T15:46:47.868Z,102706.84
2023-04-02T15:49:20.401Z,102715.75
2023-04-02T15:52:05.854Z,102711.44
2023-04-02T15:55:06.676Z,102712.97
2023-04-02T15:58:29.243Z,102709.22
2023-04-02T16:01:05.188Z,102704.59
2023-04-02T16:03:56.749Z,102705.72
2023-04-02T16:06:50.688Z,102708.50
2023-04-02T16:09:58.591Z,102704.88
2023-04-02T16:12:27.444Z,102710.31
2023-04-02T16:14:59.644Z,102718.38
2023-04-02T16:17:37.000Z,102723.97
2023-04-02T16:20:14.367Z,102731.03
2023-04-02T16:22:57.253Z,102738.09
2023-04-02T16:25:31.432Z,102734.31
2023-04-02T16:28:03.685Z,102734.44
2023-04-02T16:30:41.467Z,102741.38
2023-04-02T16:33:42.680Z,102739.88
2023-04-02T16:36:22.033Z,102745.50
2023-04-02T16:38:57.066Z,102752.28
2023-04-02T16:41:41.745Z,102754.34
2023-04-02T16:44:39.227Z,102753.22
2023-04-02T16:47:11.648Z,102758.75
2023-04-02T16:50:01.125Z,102766.91
2023-04-02T16:53:17.253Z,102780.06
2023-04-02T16:56:21.430Z,102781.53
2023-04-02T16:59:06.864Z,102787.56
2023-04-02T17:02:05.196Z,102791.13
2023-04-02T17:05:00.915Z,102788.38
2023-04-02T17:07:31.329Z,102793.19
2023-04-02T17:10:20.978Z,102797.03
2023-04-02T17:13:29.996Z,102804.34
2023-04-02T17:16:21.931Z,102822.06
2023-04-02T17:18:52.331Z,102823.06
2023-04-02T17:21:22.707Z,102823.97
2023-04-02T17:24:11.710Z,102826.41
2023-04-02T17:26:38.573Z,102824.28
2023-04-02T17:29:14.708Z,102829.66
2023-04-02T17:31:43.742Z,102836.13
2023-04-02T17:34:16.218Z,102833.06
2023-04-02T17:37:16.465Z,102831.50
2023-04-02T17:39:59.515Z,102844.88
2023-04-02T17:43:02.234Z,102851.94
2023-04-02T17:45:51.842Z,102849.59
2023-04-02T17:48:29.780Z,102850.56
2023-04-02T17:51:11.357Z,102853.91
2023-04-02T17:53:47.363Z,102862.28
2023-04-02T17:56:29.106Z,102876.72
2023-04-02T17:59:23.859Z,102872.22
2023-04-02T18:02:46.890Z,102886.03
2023-04-02T18:05:20.344Z,102883.03
2023-04-02T18:08:12.502Z,102886.41
2023-04-02T18:11:05.493Z,102894.50
2023-04-02T18:13:40.271Z,102898.53
2023-04-02T18:16:23.074Z,102893.31
2023-04-02T18:18:57.461Z,102896.97
2023-04-02T18:21:46.678Z,102907.22
2023-04-02T18:24:46.313Z,102905.31
2023-04-02T18:27:50.000Z,102910.66
2023-04-02T18:30:27.516Z,102919.22
2023-04-02T18:33:11.137Z,102929.34
2023-04-02T18:35:59.700Z,102927.50
2023-04-02T18:39:15.608Z,102933.19
2023-04-02T18:41:44.895Z,102940.44
2023-04-02T18:44:31.409Z,102941.75
2023-04-02T18:47:23.900Z,102943.75
2023-04-02T18:50:10.720Z,102950.03
2023-04-02T18:52:38.531Z,102941.47
2023-04-02T18:55:13.461Z,102954.06
2023-04-02T18:57:42.994Z,102947.59
2023-04-02T19:00:09.677Z,102964.47
2023-04-02T19:02:43.000Z,102967.94
2023-04-02T19:05:28.318Z,102966.59
2023-04-02T19:08:02.774Z,102974.88
2023-04-02T19:10:33.409Z,102982.13
2023-04-02T19:13:00.666Z,102984.94
2023-04-02T19:15:43.565Z,102990.31
2023-04-02T19:18:39.930Z,103002.88
2023-04-02T19:21:25.980Z,102996.59
2023-04-02T19:24:20.669Z,103002.88
2023-04-02T19:26:59.056Z,103014.41
2023-04-02T19:29:39.804Z,103017.44
2023-04-02T19:32:09.784Z,103015.88
2023-04-02T19:35:11.476Z,103018.50
2023-04-02T19:37:57.906Z,103020.72
2023-04-02T19:40:29.699Z,103019.34
2023-04-02T19:42:57.067Z,103023.94
2023-04-02T19:45:32.128Z,103024.78
2023-04-02T19:48:02.465Z,103031.91
2023-04-02T19:50:29.778Z,103029.50
2023-04-02T19:52:56.380Z,103041.75
2023-04-02T19:55:22.905Z,103041.00
2023-04-02T19:57:49.802Z,103039.22
2023-04-02T20:00:16.867Z,103041.84
2023-04-02T20:02:43.417Z,103036.72
2023-04-02T20:05:10.419Z,103042.56
2023-04-02T20:07:37.208Z,103044.78
2023-04-02T20:10:03.894Z,103048.44
2023-04-02T20:12:30.409Z,103046.13
2023-04-02T20:14:56.841Z,103047.53
2023-04-02T20:17:23.389Z,103053.91
2023-04-02T20:19:49.837Z,103047.34
2023-04-02T20:22:16.531Z,103056.22
2023-04-02T20:24:42.992Z,103064.44
2023-04-02T20:27:09.466Z,103065.69
2023-04-02T20:29:35.994Z,103070.28
2023-04-02T20:32:02.656Z,103069.72
2023-04-02T20:34:29.501Z,103075.19
2023-04-02T20:36:56.072Z,103076.41
2023-04-02T20:39:22.508Z,103084.34
2023-04-02T20:41:48.954Z,103085.50
2023-04-02T20:44:15.847Z,103091.56
2023-04-02T20:46:42.609Z,103097.81
2023-04-02T20:49:09.098Z,103094.66
2023-04-02T20:51:35.648Z,103096.81
2023-04-02T20:54:02.159Z,103097.94
2023-04-02T20:56:29.427Z,103105.88
2023-04-02T20:58:55.912Z,103112.22
2023-04-02T21:01:24.578Z,103114.38
2023-04-02T21:03:59.295Z,103105.88
2023-04-02T21:06:31.497Z,103117.47
2023-04-02T21:08:58.440Z,103122.03
2023-04-02T21:11:26.278Z,103125.03
2023-04-02T21:13:53.215Z,103124.56
2023-04-02T21:16:32.091Z,103129.97
2023-04-02T21:19:02.118Z,103129.22
2023-04-02T21:21:29.570Z,103133.88
2023-04-02T21:24:01.618Z,103132.13
2023-04-02T21:26:31.888Z,103134.91
2023-04-02T21:28:59.883Z,103135.84
2023-04-02T21:31:29.357Z,103138.91
2023-04-02T21:33:57.663Z,103139.28
2023-04-02T21:36:27.210Z,103149.16
2023-04-02T21:38:57.354Z,103152.78
2023-04-02T21:41:29.869Z,103149.44
2023-04-02T21:43:57.950Z,103146.19
2023-04-02T21:46:26.939Z,103147.19
2023-04-02T21:48:55.261Z,103154.53
2023-04-02T21:51:24.392Z,103153.88
2023-04-02T21:53:51.149Z,103157.41
2023-04-02T21:56:19.579Z,103158.41
2023-04-02T21:58:47.384Z,103162.13
2023-04-02T22:01:26.940Z,103152.66
2023-04-02T22:03:55.697Z,103154.69
2023-04-02T22:06:23.794Z,103153.25
2023-04-02T22:09:01.962Z,103161.25
2023-04-02T22:11:31.915Z,103148.47
2023-04-02T22:13:59.122Z,103153.97
2023-04-02T22:16:28.821Z,103160.09
2023-04-02T22:18:58.521Z,103156.91
2023-04-02T22:21:26.049Z,103158.97
2023-04-02T22:23:52.850Z,103162.56
2023-04-02T22:26:20.840Z,103159.28
2023-04-02T22:28:47.559Z,103169.81
2023-04-02T22:31:20.553Z,103170.06
2023-04-02T22:33:48.149Z,103172.75
2023-04-02T22:36:16.213Z,103171.25
2023-04-02T22:38:43.352Z,103168.81
2023-04-02T22:41:12.874Z,103166.38
2023-04-02T22:43:41.103Z,103172.69
2023-04-02T22:46:09.375Z,103165.13
2023-04-02T22:48:36.375Z,103162.50
2023-04-02T22:51:03.353Z,103168.81
2023-04-02T22:53:30.632Z,103174.03
2023-04-02T22:56:03.065Z,103177.63
2023-04-02T22:58:29.818Z,103183.84
2023-04-02T23:00:56.253Z,103178.88
2023-04-02T23:03:22.735Z,103176.44
2023-04-02T23:06:11.039Z,103184.25
2023-04-02T23:08:38.690Z,103189.63
2023-04-02T23:11:10.113Z,103191.66
2023-04-02T23:13:37.826Z,103189.31
2023-04-02T23:16:07.013Z,103185.78
2023-04-02T23:18:35.608Z,103188.63
2023-04-02T23:21:02.693Z,103184.66
2023-04-02T23:23:29.380Z,103184.97
2023-04-02T23:26:22.885Z,103187.81
2023-04-02T23:28:50.513Z,103187.97
2023-04-02T23:31:20.468Z,103190.50
2023-04-02T23:33:47.277Z,103190.59
2023-04-02T23:36:18.641Z,103191.44
2023-04-02T23:38:45.279Z,103194.03
2023-04-02T23:41:16.885Z,103197.63
2023-04-02T23:43:43.834Z,103193.34
2023-04-02T23:46:10.743Z,103196.88
2023-04-02T23:48:37.393Z,103201.25
2023-04-02T23:51:04.520Z,103203.16
2023-04-02T23:53:31.128Z,103201.50
2023-04-02T23:55:57.694Z,103197.44
2023-04-02T23:58:24.213Z,103207.00
